sensor_id;sensor_type;location;lat;lon;timestamp;temperature;humidity
19732;DHT22;10017;54.350;18.532;2022-11-20T00:01:26;-2.70;99.90
19732;DHT22;10017;54.350;18.532;2022-11-20T00:03:58;-2.70;99.90
19732;DHT22;10017;54.350;18.532;2022-11-20T00:06:30;-2.70;99.90
19732;DHT22;10017;54.350;18.532;2022-11-20T00:09:02;-2.70;99.90
19732;DHT22;10017;54.350;18.532;2022-11-20T00:11:34;-2.70;99.90
19732;DHT22;10017;54.350;18.532;2022-11-20T00:14:06;-2.70;99.90
19732;DHT22;10017;54.350;18.532;2022-11-20T00:16:38;-2.70;99.90
19732;DHT22;10017;54.350;18.532;2022-11-20T00:19:10;-2.70;99.90
19732;DHT22;10017;54.350;18.532;2022-11-20T00:21:42;-2.70;99.90
19732;DHT22;10017;54.350;18.532;2022-11-20T00:24:13;-2.70;99.90
19732;DHT22;10017;54.350;18.532;2022-11-20T00:26:45;-2.70;99.90
19732;DHT22;10017;54.350;18.532;2022-11-20T00:29:17;-2.70;99.90
19732;DHT22;10017;54.350;18.532;2022-11-20T00:31:49;-2.70;99.90
19732;DHT22;10017;54.350;18.532;2022-11-20T00:34:21;-2.70;99.90
19732;DHT22;10017;54.350;18.532;2022-11-20T00:36:55;-2.60;99.90
19732;DHT22;10017;54.350;18.532;2022-11-20T00:39:29;-2.60;99.90
19732;DHT22;10017;54.350;18.532;2022-11-20T00:42:01;-2.60;99.90
19732;DHT22;10017;54.350;18.532;2022-11-20T00:44:34;-2.60;99.90
19732;DHT22;10017;54.350;18.532;2022-11-20T00:47:07;-2.60;99.90
19732;DHT22;10017;54.350;18.532;2022-11-20T00:49:38;-2.60;99.90
19732;DHT22;10017;54.350;18.532;2022-11-20T00:52:10;-2.60;99.90
19732;DHT22;10017;54.350;18.532;2022-11-20T00:54:42;-2.60;99.90
19732;DHT22;10017;54.350;18.532;2022-11-20T00:57:16;-2.60;99.90
19732;DHT22;10017;54.350;18.532;2022-11-20T00:59:48;-2.50;99.90
19732;DHT22;10017;54.350;18.532;2022-11-20T01:02:20;-2.50;99.90
19732;DHT22;10017;54.350;18.532;2022-11-20T01:04:51;-2.50;99.90
19732;DHT22;10017;54.350;18.532;2022-11-20T01:07:23;-2.50;99.90
19732;DHT22;10017;54.350;18.532;2022-11-20T01:09:57;-2.50;99.90
19732;DHT22;10017;54.350;18.532;2022-11-20T01:12:29;-2.50;99.90
19732;DHT22;10017;54.350;18.532;2022-11-20T01:15:01;-2.50;99.90
19732;DHT22;10017;54.350;18.532;2022-11-20T01:17:33;-2.60;99.90
19732;DHT22;10017;54.350;18.532;2022-11-20T01:20:05;-2.60;99.90
19732;DHT22;10017;54.350;18.532;2022-11-20T01:22:39;-2.60;99.90
19732;DHT22;10017;54.350;18.532;2022-11-20T01:25:11;-2.60;99.90
19732;DHT22;10017;54.350;18.532;2022-11-20T01:27:43;-2.70;99.90
19732;DHT22;10017;54.350;18.532;2022-11-20T01:30:15;-2.70;99.90
19732;DHT22;10017;54.350;18.532;2022-11-20T01:32:47;-2.70;99.90
19732;DHT22;10017;54.350;18.532;2022-11-20T01:35:18;-2.80;99.90
19732;DHT22;10017;54.350;18.532;2022-11-20T01:37:51;-2.80;99.90
19732;DHT22;10017;54.350;18.532;2022-11-20T01:40:23;-2.80;99.90
19732;DHT22;10017;54.350;18.532;2022-11-20T01:42:59;-2.80;99.90
19732;DHT22;10017;54.350;18.532;2022-11-20T01:46:01;-2.70;99.90
19732;DHT22;10017;54.350;18.532;2022-11-20T01:51:10;-2.70;99.90
19732;DHT22;10017;54.350;18.532;2022-11-20T01:53:44;-2.70;99.90
19732;DHT22;10017;54.350;18.532;2022-11-20T01:56:16;-2.70;99.90
19732;DHT22;10017;54.350;18.532;2022-11-20T01:58:51;-2.60;99.90
19732;DHT22;10017;54.350;18.532;2022-11-20T02:01:24;-2.60;99.90
19732;DHT22;10017;54.350;18.532;2022-11-20T02:03:56;-2.60;99.90
19732;DHT22;10017;54.350;18.532;2022-11-20T02:06:30;-2.60;99.90
19732;DHT22;10017;54.350;18.532;2022-11-20T02:09:04;-2.50;99.90
19732;DHT22;10017;54.350;18.532;2022-11-20T02:11:36;-2.60;99.90
19732;DHT22;10017;54.350;18.532;2022-11-20T02:14:08;-2.50;99.90
19732;DHT22;10017;54.350;18.532;2022-11-20T02:16:43;-2.50;99.90
19732;DHT22;10017;54.350;18.532;2022-11-20T02:19:22;-2.50;99.90
19732;DHT22;10017;54.350;18.532;2022-11-20T02:24:29;-2.50;99.90
19732;DHT22;10017;54.350;18.532;2022-11-20T02:27:07;-2.50;99.90
19732;DHT22;10017;54.350;18.532;2022-11-20T02:29:53;-2.50;99.90
19732;DHT22;10017;54.350;18.532;2022-11-20T02:34:57;-2.50;99.90
19732;DHT22;10017;54.350;18.532;2022-11-20T02:37:30;-2.60;99.90
19732;DHT22;10017;54.350;18.532;2022-11-20T02:40:04;-2.50;99.90
19732;DHT22;10017;54.350;18.532;2022-11-20T02:42:36;-2.50;99.90
19732;DHT22;10017;54.350;18.532;2022-11-20T02:45:08;-2.50;99.90
19732;DHT22;10017;54.350;18.532;2022-11-20T02:47:40;-2.50;99.90
19732;DHT22;10017;54.350;18.532;2022-11-20T02:50:11;-2.50;99.90
19732;DHT22;10017;54.350;18.532;2022-11-20T02:52:43;-2.60;99.90
19732;DHT22;10017;54.350;18.532;2022-11-20T02:55:15;-2.50;99.90
19732;DHT22;10017;54.350;18.532;2022-11-20T02:57:47;-2.50;99.90
19732;DHT22;10017;54.350;18.532;2022-11-20T03:00:21;-2.50;99.90
19732;DHT22;10017;54.350;18.532;2022-11-20T03:02:55;-2.50;99.90
19732;DHT22;10017;54.350;18.532;2022-11-20T03:05:27;-2.50;99.90
19732;DHT22;10017;54.350;18.532;2022-11-20T03:07:59;-2.60;99.90
19732;DHT22;10017;54.350;18.532;2022-11-20T03:10:30;-2.60;99.90
19732;DHT22;10017;54.350;18.532;2022-11-20T03:13:02;-2.60;99.90
19732;DHT22;10017;54.350;18.532;2022-11-20T03:15:35;-2.60;99.90
19732;DHT22;10017;54.350;18.532;2022-11-20T03:18:07;-2.60;99.90
19732;DHT22;10017;54.350;18.532;2022-11-20T03:20:39;-2.60;99.90
19732;DHT22;10017;54.350;18.532;2022-11-20T03:23:10;-2.60;99.90
19732;DHT22;10017;54.350;18.532;2022-11-20T03:25:42;-2.60;99.90
19732;DHT22;10017;54.350;18.532;2022-11-20T03:28:19;-2.60;99.90
19732;DHT22;10017;54.350;18.532;2022-11-20T03:30:50;-2.60;99.90
19732;DHT22;10017;54.350;18.532;2022-11-20T03:33:22;-2.60;99.90
19732;DHT22;10017;54.350;18.532;2022-11-20T03:35:55;-2.60;99.90
19732;DHT22;10017;54.350;18.532;2022-11-20T03:38:32;-2.60;99.90
19732;DHT22;10017;54.350;18.532;2022-11-20T03:41:05;-2.60;99.90
19732;DHT22;10017;54.350;18.532;2022-11-20T03:43:37;-2.60;99.90
19732;DHT22;10017;54.350;18.532;2022-11-20T03:46:09;-2.60;99.90
19732;DHT22;10017;54.350;18.532;2022-11-20T03:48:41;-2.50;99.90
19732;DHT22;10017;54.350;18.532;2022-11-20T03:51:19;-2.60;99.90
19732;DHT22;10017;54.350;18.532;2022-11-20T03:53:52;-2.50;99.90
19732;DHT22;10017;54.350;18.532;2022-11-20T03:56:25;-2.50;99.90
19732;DHT22;10017;54.350;18.532;2022-11-20T03:58:57;-2.50;99.90
19732;DHT22;10017;54.350;18.532;2022-11-20T04:01:33;-2.50;99.90
19732;DHT22;10017;54.350;18.532;2022-11-20T04:04:05;-2.50;99.90
19732;DHT22;10017;54.350;18.532;2022-11-20T04:06:37;-2.50;99.90
19732;DHT22;10017;54.350;18.532;2022-11-20T04:09:09;-2.50;99.90
19732;DHT22;10017;54.350;18.532;2022-11-20T04:11:41;-2.50;99.90
19732;DHT22;10017;54.350;18.532;2022-11-20T04:14:13;-2.50;99.90
19732;DHT22;10017;54.350;18.532;2022-11-20T04:16:45;-2.50;99.90
19732;DHT22;10017;54.350;18.532;2022-11-20T04:19:17;-2.50;99.90
19732;DHT22;10017;54.350;18.532;2022-11-20T04:21:52;-2.50;99.90
19732;DHT22;10017;54.350;18.532;2022-11-20T04:24:28;-2.40;99.90
19732;DHT22;10017;54.350;18.532;2022-11-20T04:27:00;-2.50;99.90
19732;DHT22;10017;54.350;18.532;2022-11-20T04:29:32;-2.50;99.90
19732;DHT22;10017;54.350;18.532;2022-11-20T04:32:04;-2.50;99.90
19732;DHT22;10017;54.350;18.532;2022-11-20T04:34:38;-2.60;99.90
19732;DHT22;10017;54.350;18.532;2022-11-20T04:37:10;-2.60;99.90
19732;DHT22;10017;54.350;18.532;2022-11-20T04:39:44;-2.60;99.90
19732;DHT22;10017;54.350;18.532;2022-11-20T04:42:16;-2.70;99.90
19732;DHT22;10017;54.350;18.532;2022-11-20T04:45:02;-2.70;99.90
19732;DHT22;10017;54.350;18.532;2022-11-20T04:47:34;-2.80;99.90
19732;DHT22;10017;54.350;18.532;2022-11-20T04:50:06;-2.90;99.90
19732;DHT22;10017;54.350;18.532;2022-11-20T04:52:38;-3.00;99.90
19732;DHT22;10017;54.350;18.532;2022-11-20T04:55:10;-3.10;99.90
19732;DHT22;10017;54.350;18.532;2022-11-20T04:57:41;-3.10;99.90
19732;DHT22;10017;54.350;18.532;2022-11-20T05:00:16;-3.20;99.90
19732;DHT22;10017;54.350;18.532;2022-11-20T05:02:50;-3.30;99.90
19732;DHT22;10017;54.350;18.532;2022-11-20T05:05:22;-3.40;99.90
19732;DHT22;10017;54.350;18.532;2022-11-20T05:07:55;-3.50;99.90
19732;DHT22;10017;54.350;18.532;2022-11-20T05:10:27;-3.60;99.90
19732;DHT22;10017;54.350;18.532;2022-11-20T05:12:59;-3.70;99.90
19732;DHT22;10017;54.350;18.532;2022-11-20T05:15:31;-3.70;99.90
19732;DHT22;10017;54.350;18.532;2022-11-20T05:18:04;-3.80;99.90
19732;DHT22;10017;54.350;18.532;2022-11-20T05:20:35;-3.90;99.90
19732;DHT22;10017;54.350;18.532;2022-11-20T05:23:10;-3.90;99.90
19732;DHT22;10017;54.350;18.532;2022-11-20T05:25:42;-3.90;99.90
19732;DHT22;10017;54.350;18.532;2022-11-20T05:28:14;-3.90;99.90
19732;DHT22;10017;54.350;18.532;2022-11-20T05:30:45;-3.90;99.90
19732;DHT22;10017;54.350;18.532;2022-11-20T05:33:17;-3.80;99.90
19732;DHT22;10017;54.350;18.532;2022-11-20T05:35:51;-3.80;99.90
19732;DHT22;10017;54.350;18.532;2022-11-20T05:38:23;-3.70;99.90
19732;DHT22;10017;54.350;18.532;2022-11-20T05:40:55;-3.70;99.90
19732;DHT22;10017;54.350;18.532;2022-11-20T05:43:34;-3.70;99.90
19732;DHT22;10017;54.350;18.532;2022-11-20T05:46:07;-3.70;99.90
19732;DHT22;10017;54.350;18.532;2022-11-20T05:48:40;-3.70;99.90
19732;DHT22;10017;54.350;18.532;2022-11-20T05:51:15;-3.70;99.90
19732;DHT22;10017;54.350;18.532;2022-11-20T05:53:47;-3.80;99.90
19732;DHT22;10017;54.350;18.532;2022-11-20T05:56:20;-3.80;99.90
19732;DHT22;10017;54.350;18.532;2022-11-20T05:58:52;-3.90;99.90
19732;DHT22;10017;54.350;18.532;2022-11-20T06:01:24;-3.90;99.90
19732;DHT22;10017;54.350;18.532;2022-11-20T06:03:56;-4.00;99.90
19732;DHT22;10017;54.350;18.532;2022-11-20T06:06:28;-4.00;99.90
19732;DHT22;10017;54.350;18.532;2022-11-20T06:09:02;-4.10;99.90
19732;DHT22;10017;54.350;18.532;2022-11-20T06:11:34;-4.20;99.90
19732;DHT22;10017;54.350;18.532;2022-11-20T06:14:06;-4.20;99.90
19732;DHT22;10017;54.350;18.532;2022-11-20T06:16:40;-4.30;99.90
19732;DHT22;10017;54.350;18.532;2022-11-20T06:19:12;-4.30;99.90
19732;DHT22;10017;54.350;18.532;2022-11-20T06:21:44;-4.40;99.90
19732;DHT22;10017;54.350;18.532;2022-11-20T06:24:16;-4.40;99.90
19732;DHT22;10017;54.350;18.532;2022-11-20T06:26:48;-4.50;99.90
19732;DHT22;10017;54.350;18.532;2022-11-20T06:29:19;-4.50;99.90
19732;DHT22;10017;54.350;18.532;2022-11-20T06:31:52;-4.50;99.90
19732;DHT22;10017;54.350;18.532;2022-11-20T06:34:23;-4.60;99.90
19732;DHT22;10017;54.350;18.532;2022-11-20T06:36:55;-4.60;99.90
19732;DHT22;10017;54.350;18.532;2022-11-20T06:39:27;-4.60;99.90
19732;DHT22;10017;54.350;18.532;2022-11-20T06:41:59;-4.70;99.90
19732;DHT22;10017;54.350;18.532;2022-11-20T06:44:30;-4.70;99.90
19732;DHT22;10017;54.350;18.532;2022-11-20T06:47:02;-4.70;99.90
19732;DHT22;10017;54.350;18.532;2022-11-20T06:49:34;-4.70;99.90
19732;DHT22;10017;54.350;18.532;2022-11-20T06:52:10;-4.80;99.90
19732;DHT22;10017;54.350;18.532;2022-11-20T06:54:45;-4.70;99.90
19732;DHT22;10017;54.350;18.532;2022-11-20T06:57:16;-4.70;99.90
19732;DHT22;10017;54.350;18.532;2022-11-20T06:59:51;-4.60;99.90
19732;DHT22;10017;54.350;18.532;2022-11-20T07:02:23;-4.60;99.90
19732;DHT22;10017;54.350;18.532;2022-11-20T07:04:54;-4.40;99.90
19732;DHT22;10017;54.350;18.532;2022-11-20T07:07:26;-4.40;99.90
19732;DHT22;10017;54.350;18.532;2022-11-20T07:09:58;-4.20;99.90
19732;DHT22;10017;54.350;18.532;2022-11-20T07:12:30;-4.10;99.90
19732;DHT22;10017;54.350;18.532;2022-11-20T07:15:01;-4.00;99.90
19732;DHT22;10017;54.350;18.532;2022-11-20T07:17:38;-3.90;99.90
19732;DHT22;10017;54.350;18.532;2022-11-20T07:20:10;-3.80;99.90
19732;DHT22;10017;54.350;18.532;2022-11-20T07:22:42;-3.70;99.90
19732;DHT22;10017;54.350;18.532;2022-11-20T07:25:14;-3.60;99.90
19732;DHT22;10017;54.350;18.532;2022-11-20T07:27:46;-3.50;99.90
19732;DHT22;10017;54.350;18.532;2022-11-20T07:30:19;-3.40;99.90
19732;DHT22;10017;54.350;18.532;2022-11-20T07:32:52;-3.30;99.90
19732;DHT22;10017;54.350;18.532;2022-11-20T07:35:24;-3.30;99.90
19732;DHT22;10017;54.350;18.532;2022-11-20T07:37:56;-3.20;99.90
19732;DHT22;10017;54.350;18.532;2022-11-20T07:40:28;-3.20;99.90
19732;DHT22;10017;54.350;18.532;2022-11-20T07:43:02;-3.10;99.90
19732;DHT22;10017;54.350;18.532;2022-11-20T07:45:34;-3.00;99.90
19732;DHT22;10017;54.350;18.532;2022-11-20T07:48:05;-3.00;99.90
19732;DHT22;10017;54.350;18.532;2022-11-20T07:50:37;-3.00;99.90
19732;DHT22;10017;54.350;18.532;2022-11-20T07:53:09;-2.90;99.90
19732;DHT22;10017;54.350;18.532;2022-11-20T07:55:41;-3.00;99.90
19732;DHT22;10017;54.350;18.532;2022-11-20T07:58:13;-3.00;99.90
19732;DHT22;10017;54.350;18.532;2022-11-20T08:00:45;-3.00;99.90
19732;DHT22;10017;54.350;18.532;2022-11-20T08:03:19;-2.90;99.90
19732;DHT22;10017;54.350;18.532;2022-11-20T08:05:58;-2.90;99.90
19732;DHT22;10017;54.350;18.532;2022-11-20T08:08:29;-2.80;99.90
19732;DHT22;10017;54.350;18.532;2022-11-20T08:11:05;-2.70;99.90
19732;DHT22;10017;54.350;18.532;2022-11-20T08:13:55;-2.60;99.90
19732;DHT22;10017;54.350;18.532;2022-11-20T08:16:46;-2.60;99.90
19732;DHT22;10017;54.350;18.532;2022-11-20T08:19:18;-2.50;99.90
19732;DHT22;10017;54.350;18.532;2022-11-20T08:21:51;-2.40;99.90
19732;DHT22;10017;54.350;18.532;2022-11-20T08:24:23;-2.30;99.90
19732;DHT22;10017;54.350;18.532;2022-11-20T08:26:59;-2.20;99.90
19732;DHT22;10017;54.350;18.532;2022-11-20T08:29:31;-2.20;99.90
19732;DHT22;10017;54.350;18.532;2022-11-20T08:32:03;-2.10;99.90
19732;DHT22;10017;54.350;18.532;2022-11-20T08:34:34;-2.10;99.90
19732;DHT22;10017;54.350;18.532;2022-11-20T08:37:06;-2.10;99.90
19732;DHT22;10017;54.350;18.532;2022-11-20T08:39:38;-2.00;99.90
19732;DHT22;10017;54.350;18.532;2022-11-20T08:42:10;-2.00;99.90
19732;DHT22;10017;54.350;18.532;2022-11-20T08:44:42;-1.90;99.90
19732;DHT22;10017;54.350;18.532;2022-11-20T08:47:14;-1.90;99.90
19732;DHT22;10017;54.350;18.532;2022-11-20T08:49:46;-1.90;99.90
19732;DHT22;10017;54.350;18.532;2022-11-20T08:52:20;-1.90;99.90
19732;DHT22;10017;54.350;18.532;2022-11-20T08:54:52;-1.90;99.90
19732;DHT22;10017;54.350;18.532;2022-11-20T08:57:24;-1.90;99.90
19732;DHT22;10017;54.350;18.532;2022-11-20T08:59:55;-1.90;99.90
19732;DHT22;10017;54.350;18.532;2022-11-20T09:02:37;-1.90;99.90
19732;DHT22;10017;54.350;18.532;2022-11-20T09:05:09;-1.80;99.90
19732;DHT22;10017;54.350;18.532;2022-11-20T09:07:41;-1.80;99.90
19732;DHT22;10017;54.350;18.532;2022-11-20T09:10:13;-1.70;99.90
19732;DHT22;10017;54.350;18.532;2022-11-20T09:13:00;-1.70;99.90
19732;DHT22;10017;54.350;18.532;2022-11-20T09:15:34;-1.70;99.90
19732;DHT22;10017;54.350;18.532;2022-11-20T09:18:05;-1.70;99.90
19732;DHT22;10017;54.350;18.532;2022-11-20T09:20:37;-1.60;99.90
19732;DHT22;10017;54.350;18.532;2022-11-20T09:23:09;-1.50;99.90
19732;DHT22;10017;54.350;18.532;2022-11-20T09:25:41;-1.40;99.90
19732;DHT22;10017;54.350;18.532;2022-11-20T09:28:14;-1.30;99.90
19732;DHT22;10017;54.350;18.532;2022-11-20T09:30:46;-1.30;99.90
19732;DHT22;10017;54.350;18.532;2022-11-20T09:33:18;-1.40;99.90
19732;DHT22;10017;54.350;18.532;2022-11-20T09:35:52;-1.40;99.90
19732;DHT22;10017;54.350;18.532;2022-11-20T09:38:24;-1.30;99.90
19732;DHT22;10017;54.350;18.532;2022-11-20T09:40:57;-1.30;99.90
19732;DHT22;10017;54.350;18.532;2022-11-20T09:43:45;-1.30;99.90
19732;DHT22;10017;54.350;18.532;2022-11-20T09:46:26;-1.30;99.90
19732;DHT22;10017;54.350;18.532;2022-11-20T09:54:30;-1.30;99.90
19732;DHT22;10017;54.350;18.532;2022-11-20T09:57:05;-1.30;99.90
19732;DHT22;10017;54.350;18.532;2022-11-20T09:59:41;-1.30;99.90
19732;DHT22;10017;54.350;18.532;2022-11-20T10:07:41;-1.10;99.90
19732;DHT22;10017;54.350;18.532;2022-11-20T10:10:15;-1.10;99.90
19732;DHT22;10017;54.350;18.532;2022-11-20T10:12:52;-1.20;99.90
19732;DHT22;10017;54.350;18.532;2022-11-20T10:31:14;-1.30;99.90
19732;DHT22;10017;54.350;18.532;2022-11-20T10:33:48;-1.20;99.90
19732;DHT22;10017;54.350;18.532;2022-11-20T10:36:44;-1.20;99.90
19732;DHT22;10017;54.350;18.532;2022-11-20T10:39:21;-1.30;99.90
19732;DHT22;10017;54.350;18.532;2022-11-20T10:41:54;-1.20;99.90
19732;DHT22;10017;54.350;18.532;2022-11-20T10:44:27;-1.20;99.90
19732;DHT22;10017;54.350;18.532;2022-11-20T10:47:18;-1.10;99.90
19732;DHT22;10017;54.350;18.532;2022-11-20T10:49:53;-1.10;99.90
19732;DHT22;10017;54.350;18.532;2022-11-20T10:52:45;-1.10;99.90
19732;DHT22;10017;54.350;18.532;2022-11-20T10:58:14;-1.00;99.90
19732;DHT22;10017;54.350;18.532;2022-11-20T11:00:46;-0.90;99.90
19732;DHT22;10017;54.350;18.532;2022-11-20T11:03:28;-0.80;99.90
19732;DHT22;10017;54.350;18.532;2022-11-20T11:06:06;-0.80;99.90
19732;DHT22;10017;54.350;18.532;2022-11-20T11:08:39;-0.70;99.90
19732;DHT22;10017;54.350;18.532;2022-11-20T11:13:51;-0.60;99.90
19732;DHT22;10017;54.350;18.532;2022-11-20T11:16:25;-0.70;99.90
19732;DHT22;10017;54.350;18.532;2022-11-20T11:19:03;-0.70;99.90
19732;DHT22;10017;54.350;18.532;2022-11-20T11:21:35;-0.80;99.90
19732;DHT22;10017;54.350;18.532;2022-11-20T11:24:19;-0.80;99.90
19732;DHT22;10017;54.350;18.532;2022-11-20T11:27:13;-0.90;99.90
19732;DHT22;10017;54.350;18.532;2022-11-20T11:29:48;-1.00;99.90
19732;DHT22;10017;54.350;18.532;2022-11-20T11:32:20;-1.00;99.90
19732;DHT22;10017;54.350;18.532;2022-11-20T11:35:03;-1.10;99.90
19732;DHT22;10017;54.350;18.532;2022-11-20T11:37:36;-1.10;99.90
19732;DHT22;10017;54.350;18.532;2022-11-20T11:40:09;-1.10;99.90
19732;DHT22;10017;54.350;18.532;2022-11-20T11:43:02;-1.10;99.90
19732;DHT22;10017;54.350;18.532;2022-11-20T11:45:35;-1.10;99.90
19732;DHT22;10017;54.350;18.532;2022-11-20T11:48:07;-1.20;99.90
19732;DHT22;10017;54.350;18.532;2022-11-20T11:50:47;-1.20;99.90
19732;DHT22;10017;54.350;18.532;2022-11-20T11:53:23;-1.10;99.90
19732;DHT22;10017;54.350;18.532;2022-11-20T11:56:18;-1.10;99.90
19732;DHT22;10017;54.350;18.532;2022-11-20T11:58:50;-1.10;99.90
19732;DHT22;10017;54.350;18.532;2022-11-20T12:06:33;-1.10;99.90
19732;DHT22;10017;54.350;18.532;2022-11-20T12:09:08;-1.10;99.90
19732;DHT22;10017;54.350;18.532;2022-11-20T12:11:45;-1.10;99.90
19732;DHT22;10017;54.350;18.532;2022-11-20T12:14:19;-1.10;99.90
19732;DHT22;10017;54.350;18.532;2022-11-20T12:16:55;-1.00;99.90
19732;DHT22;10017;54.350;18.532;2022-11-20T12:19:30;-1.00;99.90
19732;DHT22;10017;54.350;18.532;2022-11-20T12:30:21;-0.80;99.90
19732;DHT22;10017;54.350;18.532;2022-11-20T12:43:39;-0.70;99.90
19732;DHT22;10017;54.350;18.532;2022-11-20T12:54:53;-0.70;99.90
19732;DHT22;10017;54.350;18.532;2022-11-20T13:00:15;-0.70;99.90
19732;DHT22;10017;54.350;18.532;2022-11-20T13:05:53;-0.80;99.90
19732;DHT22;10017;54.350;18.532;2022-11-20T13:08:31;-0.80;99.90
19732;DHT22;10017;54.350;18.532;2022-11-20T13:13:42;-0.80;99.90
19732;DHT22;10017;54.350;18.532;2022-11-20T13:19:05;-0.80;99.90
19732;DHT22;10017;54.350;18.532;2022-11-20T13:21:47;-0.80;99.90
19732;DHT22;10017;54.350;18.532;2022-11-20T13:24:26;-0.80;99.90
19732;DHT22;10017;54.350;18.532;2022-11-20T13:27:00;-0.90;99.90
19732;DHT22;10017;54.350;18.532;2022-11-20T13:29:32;-0.80;99.90
19732;DHT22;10017;54.350;18.532;2022-11-20T13:32:25;-0.80;99.90
19732;DHT22;10017;54.350;18.532;2022-11-20T13:34:57;-0.80;99.90
19732;DHT22;10017;54.350;18.532;2022-11-20T13:37:31;-0.80;99.90
19732;DHT22;10017;54.350;18.532;2022-11-20T13:45:29;-0.80;99.90
19732;DHT22;10017;54.350;18.532;2022-11-20T13:48:03;-0.80;99.90
19732;DHT22;10017;54.350;18.532;2022-11-20T14:01:10;-0.90;99.90
19732;DHT22;10017;54.350;18.532;2022-11-20T14:03:48;-1.00;99.90
19732;DHT22;10017;54.350;18.532;2022-11-20T14:06:43;-1.00;99.90
19732;DHT22;10017;54.350;18.532;2022-11-20T14:09:26;-1.00;99.90
19732;DHT22;10017;54.350;18.532;2022-11-20T14:11:58;-1.00;99.90
19732;DHT22;10017;54.350;18.532;2022-11-20T14:14:30;-1.00;99.90
19732;DHT22;10017;54.350;18.532;2022-11-20T14:17:17;-1.00;99.90
19732;DHT22;10017;54.350;18.532;2022-11-20T14:19:50;-1.00;99.90
19732;DHT22;10017;54.350;18.532;2022-11-20T14:22:24;-1.00;99.90
19732;DHT22;10017;54.350;18.532;2022-11-20T14:27:44;-1.00;99.90
19732;DHT22;10017;54.350;18.532;2022-11-20T14:30:21;-1.10;99.90
19732;DHT22;10017;54.350;18.532;2022-11-20T14:32:54;-1.10;99.90
19732;DHT22;10017;54.350;18.532;2022-11-20T14:35:28;-1.10;99.90
19732;DHT22;10017;54.350;18.532;2022-11-20T14:38:01;-1.10;99.90
19732;DHT22;10017;54.350;18.532;2022-11-20T14:40:34;-1.10;99.90
19732;DHT22;10017;54.350;18.532;2022-11-20T14:43:17;-1.10;99.90
19732;DHT22;10017;54.350;18.532;2022-11-20T14:45:59;-1.10;99.90
19732;DHT22;10017;54.350;18.532;2022-11-20T14:48:41;-1.10;99.90
19732;DHT22;10017;54.350;18.532;2022-11-20T14:59:31;-1.10;99.90
19732;DHT22;10017;54.350;18.532;2022-11-20T15:02:05;-1.10;99.90
19732;DHT22;10017;54.350;18.532;2022-11-20T15:04:48;-1.10;99.90
19732;DHT22;10017;54.350;18.532;2022-11-20T15:07:25;-1.10;99.90
19732;DHT22;10017;54.350;18.532;2022-11-20T15:10:04;-1.10;99.90
19732;DHT22;10017;54.350;18.532;2022-11-20T15:12:38;-1.10;99.90
19732;DHT22;10017;54.350;18.532;2022-11-20T15:15:11;-1.20;99.90
19732;DHT22;10017;54.350;18.532;2022-11-20T15:17:46;-1.10;99.90
19732;DHT22;10017;54.350;18.532;2022-11-20T15:20:18;-1.20;99.90
19732;DHT22;10017;54.350;18.532;2022-11-20T15:22:50;-1.20;99.90
19732;DHT22;10017;54.350;18.532;2022-11-20T15:25:22;-1.10;99.90
19732;DHT22;10017;54.350;18.532;2022-11-20T15:27:56;-1.20;99.90
19732;DHT22;10017;54.350;18.532;2022-11-20T15:30:28;-1.20;99.90
19732;DHT22;10017;54.350;18.532;2022-11-20T15:33:00;-1.20;99.90
19732;DHT22;10017;54.350;18.532;2022-11-20T15:35:34;-1.20;99.90
19732;DHT22;10017;54.350;18.532;2022-11-20T15:38:06;-1.20;99.90
19732;DHT22;10017;54.350;18.532;2022-11-20T15:40:37;-1.20;99.90
19732;DHT22;10017;54.350;18.532;2022-11-20T15:43:09;-1.20;99.90
19732;DHT22;10017;54.350;18.532;2022-11-20T15:45:45;-1.20;99.90
19732;DHT22;10017;54.350;18.532;2022-11-20T15:48:19;-1.20;99.90
19732;DHT22;10017;54.350;18.532;2022-11-20T15:53:35;-1.20;99.90
19732;DHT22;10017;54.350;18.532;2022-11-20T15:56:13;-1.20;99.90
19732;DHT22;10017;54.350;18.532;2022-11-20T15:58:45;-1.20;99.90
19732;DHT22;10017;54.350;18.532;2022-11-20T16:01:18;-1.20;99.90
19732;DHT22;10017;54.350;18.532;2022-11-20T16:03:51;-1.20;99.90
19732;DHT22;10017;54.350;18.532;2022-11-20T16:06:22;-1.30;99.90
19732;DHT22;10017;54.350;18.532;2022-11-20T16:08:54;-1.20;99.90
19732;DHT22;10017;54.350;18.532;2022-11-20T16:11:26;-1.20;99.90
19732;DHT22;10017;54.350;18.532;2022-11-20T16:13:58;-1.20;99.90
19732;DHT22;10017;54.350;18.532;2022-11-20T16:16:48;-1.20;99.90
19732;DHT22;10017;54.350;18.532;2022-11-20T16:19:20;-1.30;99.90
19732;DHT22;10017;54.350;18.532;2022-11-20T16:21:54;-1.30;99.90
19732;DHT22;10017;54.350;18.532;2022-11-20T16:24:33;-1.30;99.90
19732;DHT22;10017;54.350;18.532;2022-11-20T16:27:05;-1.30;99.90
19732;DHT22;10017;54.350;18.532;2022-11-20T16:29:36;-1.30;99.90
19732;DHT22;10017;54.350;18.532;2022-11-20T16:32:08;-1.30;99.90
19732;DHT22;10017;54.350;18.532;2022-11-20T16:34:41;-1.30;99.90
19732;DHT22;10017;54.350;18.532;2022-11-20T16:37:13;-1.30;99.90
19732;DHT22;10017;54.350;18.532;2022-11-20T16:39:44;-1.30;99.90
19732;DHT22;10017;54.350;18.532;2022-11-20T16:42:16;-1.30;99.90
19732;DHT22;10017;54.350;18.532;2022-11-20T16:44:48;-1.40;99.90
19732;DHT22;10017;54.350;18.532;2022-11-20T16:47:22;-1.40;99.90
19732;DHT22;10017;54.350;18.532;2022-11-20T16:49:54;-1.50;99.90
19732;DHT22;10017;54.350;18.532;2022-11-20T16:52:26;-1.50;99.90
19732;DHT22;10017;54.350;18.532;2022-11-20T16:54:58;-1.50;99.90
19732;DHT22;10017;54.350;18.532;2022-11-20T16:57:30;-1.50;99.90
19732;DHT22;10017;54.350;18.532;2022-11-20T17:00:03;-1.50;99.90
19732;DHT22;10017;54.350;18.532;2022-11-20T17:02:35;-1.50;99.90
19732;DHT22;10017;54.350;18.532;2022-11-20T17:05:08;-1.50;99.90
19732;DHT22;10017;54.350;18.532;2022-11-20T17:07:40;-1.60;99.90
19732;DHT22;10017;54.350;18.532;2022-11-20T17:10:12;-1.60;99.90
19732;DHT22;10017;54.350;18.532;2022-11-20T17:12:44;-1.60;99.90
19732;DHT22;10017;54.350;18.532;2022-11-20T17:15:15;-1.60;99.90
19732;DHT22;10017;54.350;18.532;2022-11-20T17:17:49;-1.60;99.90
19732;DHT22;10017;54.350;18.532;2022-11-20T17:20:21;-1.50;99.90
19732;DHT22;10017;54.350;18.532;2022-11-20T17:22:53;-1.60;99.90
19732;DHT22;10017;54.350;18.532;2022-11-20T17:25:25;-1.50;99.90
19732;DHT22;10017;54.350;18.532;2022-11-20T17:27:56;-1.50;99.90
19732;DHT22;10017;54.350;18.532;2022-11-20T17:30:29;-1.50;99.90
19732;DHT22;10017;54.350;18.532;2022-11-20T17:33:01;-1.50;99.90
19732;DHT22;10017;54.350;18.532;2022-11-20T17:35:34;-1.50;99.90
19732;DHT22;10017;54.350;18.532;2022-11-20T17:38:06;-1.50;99.90
19732;DHT22;10017;54.350;18.532;2022-11-20T17:40:38;-1.50;99.90
19732;DHT22;10017;54.350;18.532;2022-11-20T17:43:09;-1.50;99.90
19732;DHT22;10017;54.350;18.532;2022-11-20T17:45:43;-1.50;99.90
19732;DHT22;10017;54.350;18.532;2022-11-20T17:48:15;-1.40;99.90
19732;DHT22;10017;54.350;18.532;2022-11-20T17:50:47;-1.50;99.90